Time;durP1;ratioP1;P1;durP2;ratioP2;P2;SDS_P1;SDS_P2;PMS_P1;PMS_P2;Temp;Humidity;BMP_temperature;BMP_pressure;BME280_temperature;BME280_humidity;BME280_pressure;Samples;Min_cycle;Max_cycle;Signal;HPM_P1;HPM_P2
2023/10/26 07:06:56;;;;;;;1.52;1.38;;;;;;;;;;5657132;23;20428;-66
2023/10/26 07:09:23;;;;;;;1.35;1.15;;;;;;;;;;4975925;28;20026;-69
2023/10/26 07:11:48;;;;;;;1.20;1.10;;;;;;;;;;4976245;28;20027;-68
2023/10/26 07:14:14;;;;;;;1.48;1.20;;;;;;;;;;4975958;28;20062;-68
2023/10/26 07:16:39;;;;;;;1.10;1.00;;;;;;;;;;4975613;28;20411;-71
2023/10/26 07:19:05;;;;;;;2.15;1.35;;;;;;;;;;4987541;28;20479;-76
2023/10/26 07:21:33;;;;;;;5.95;1.50;;;;;;;;;;4991384;28;20026;-76
2023/10/26 07:23:59;;;;;;;2.13;1.10;;;;;;;;;;4995595;28;20027;-70
2023/10/26 07:26:25;;;;;;;1.10;1.00;;;;;;;;;;4985559;28;20018;-72
2023/10/26 07:28:50;;;;;;;0.77;0.77;;;;;;;;;;4975894;28;20034;-72
2023/10/26 07:31:19;;;;;;;3.22;1.10;;;;;;;;;;4975898;28;20037;-69
2023/10/26 07:33:45;;;;;;;5.00;1.45;;;;;;;;;;4967902;28;20084;-70
2023/10/26 07:36:11;;;;;;;4.05;1.40;;;;;;;;;;4954977;28;20106;-74
2023/10/26 07:38:37;;;;;;;3.92;1.15;;;;;;;;;;4953091;28;20019;-68
2023/10/26 07:41:04;;;;;;;1.50;1.00;;;;;;;;;;4963034;28;20130;-74
2023/10/26 07:43:31;;;;;;;3.22;0.98;;;;;;;;;;4974585;28;20383;-77
2023/10/26 07:45:56;;;;;;;5.22;1.17;;;;;;;;;;4966278;28;20023;-69
2023/10/26 07:48:22;;;;;;;5.70;1.40;;;;;;;;;;4955134;29;20034;-68
2023/10/26 07:50:48;;;;;;;4.40;1.15;;;;;;;;;;4956089;29;20027;-69
2023/10/26 07:53:15;;;;;;;2.47;1.38;;;;;;;;;;4954583;29;20019;-73
2023/10/26 07:55:40;;;;;;;5.47;1.38;;;;;;;;;;4956979;28;20051;-70
2023/10/26 07:58:06;;;;;;;3.92;1.33;;;;;;;;;;4975178;28;20059;-69
2023/10/26 08:00:32;;;;;;;3.55;1.30;;;;;;;;;;4975439;28;20027;-70
2023/10/26 08:02:58;;;;;;;1.45;0.90;;;;;;;;;;4975188;28;20034;-70
2023/10/26 08:05:24;;;;;;;9.48;1.50;;;;;;;;;;4975444;28;20065;-71
2023/10/26 08:07:51;;;;;;;4.90;1.20;;;;;;;;;;4975589;28;20058;-76
2023/10/26 08:10:16;;;;;;;3.45;1.27;;;;;;;;;;4984801;28;20023;-76
2023/10/26 08:12:42;;;;;;;2.80;1.30;;;;;;;;;;4991301;28;20522;-71
2023/10/26 08:15:08;;;;;;;6.25;1.33;;;;;;;;;;4975208;28;20030;-72
2023/10/26 08:17:37;;;;;;;1.67;1.15;;;;;;;;;;4975000;28;20034;-70
2023/10/26 08:20:07;;;;;;;1.37;1.00;;;;;;;;;;4975344;28;20030;-70
2023/10/26 08:22:36;;;;;;;3.40;1.27;;;;;;;;;;4975085;28;20031;-71
2023/10/26 08:25:06;;;;;;;3.63;1.30;;;;;;;;;;4973391;28;20034;-70
2023/10/26 08:27:31;;;;;;;4.22;1.30;;;;;;;;;;4975182;28;20106;-71
2023/10/26 08:29:57;;;;;;;3.45;1.00;;;;;;;;;;4974757;28;20065;-70
2023/10/26 08:32:23;;;;;;;3.13;1.20;;;;;;;;;;4974818;28;20035;-69
2023/10/26 08:34:48;;;;;;;2.63;0.90;;;;;;;;;;4974290;28;20046;-70
2023/10/26 08:37:14;;;;;;;1.55;1.08;;;;;;;;;;4974553;28;20031;-69
2023/10/26 08:39:40;;;;;;;2.22;1.02;;;;;;;;;;4974527;28;20383;-70
2023/10/26 08:42:06;;;;;;;1.25;0.93;;;;;;;;;;4981858;28;20371;-70
2023/10/26 08:44:32;;;;;;;1.77;0.95;;;;;;;;;;4990222;28;20026;-69
2023/10/26 08:47:02;;;;;;;2.72;1.10;;;;;;;;;;4991643;28;20033;-71
2023/10/26 08:49:30;;;;;;;2.33;0.93;;;;;;;;;;4987712;28;20097;-71
2023/10/26 08:51:56;;;;;;;2.78;0.95;;;;;;;;;;4988503;28;20019;-71
2023/10/26 08:54:22;;;;;;;4.25;1.13;;;;;;;;;;4986588;28;20430;-69
2023/10/26 08:56:47;;;;;;;2.72;0.90;;;;;;;;;;4992790;28;20022;-68
2023/10/26 08:59:13;;;;;;;1.40;0.68;;;;;;;;;;4994027;28;20381;-69
2023/10/26 09:01:38;;;;;;;4.53;1.10;;;;;;;;;;4993588;28;20037;-68
2023/10/26 09:04:08;;;;;;;2.17;0.95;;;;;;;;;;4994028;28;20467;-69
2023/10/26 09:06:48;;;;;;;2.75;1.33;;;;;;;;;;4993119;28;20117;-68
2023/10/26 09:09:14;;;;;;;14.55;0.98;;;;;;;;;;4993340;28;20384;-67
2023/10/26 09:11:40;;;;;;;4.93;1.02;;;;;;;;;;4993673;28;20022;-70
2023/10/26 09:14:22;;;;;;;1.77;0.77;;;;;;;;;;4993144;28;20077;-69
2023/10/26 09:16:49;;;;;;;3.17;1.10;;;;;;;;;;4993554;28;20048;-68
2023/10/26 09:19:16;;;;;;;2.22;1.08;;;;;;;;;;4988721;28;20018;-69
2023/10/26 09:21:49;;;;;;;3.30;1.15;;;;;;;;;;4975046;28;20387;-71
2023/10/26 09:24:19;;;;;;;5.65;1.10;;;;;;;;;;4973888;28;20098;-69
2023/10/26 09:26:44;;;;;;;3.38;1.00;;;;;;;;;;4978835;28;20097;-67
2023/10/26 09:29:10;;;;;;;5.68;1.30;;;;;;;;;;4993444;28;20536;-72
2023/10/26 09:31:50;;;;;;;4.85;1.17;;;;;;;;;;4992997;28;20467;-70
2023/10/26 09:34:17;;;;;;;2.17;1.00;;;;;;;;;;4989830;28;20117;-71
2023/10/26 09:36:42;;;;;;;2.97;1.10;;;;;;;;;;4973369;28;20070;-69
2023/10/26 09:39:08;;;;;;;6.97;1.20;;;;;;;;;;4969280;28;20051;-69
2023/10/26 09:41:35;;;;;;;2.53;1.20;;;;;;;;;;4954227;29;20027;-70
2023/10/26 09:44:00;;;;;;;4.93;1.10;;;;;;;;;;4954347;29;20077;-69
2023/10/26 09:46:26;;;;;;;2.58;1.00;;;;;;;;;;4954726;29;20538;-69
2023/10/26 09:48:52;;;;;;;2.38;1.10;;;;;;;;;;4964736;28;20113;-69
2023/10/26 09:51:20;;;;;;;1.23;0.90;;;;;;;;;;4991691;28;20041;-70
2023/10/26 09:53:47;;;;;;;3.85;1.25;;;;;;;;;;4990273;28;20154;-70
2023/10/26 09:56:20;;;;;;;8.55;2.00;;;;;;;;;;4992838;28;20486;-69
2023/10/26 09:58:46;;;;;;;9.10;1.20;;;;;;;;;;4993009;28;20034;-70
2023/10/26 10:01:34;;;;;;;15.65;3.25;;;;;;;;;;4992695;28;20030;-69
2023/10/26 10:04:00;;;;;;;15.40;3.38;;;;;;;;;;4993056;28;20356;-69
2023/10/26 10:06:58;;;;;;;21.13;2.88;;;;;;;;;;4993352;28;20581;-69
2023/10/26 10:09:28;;;;;;;11.63;1.13;;;;;;;;;;4996342;28;20030;-69
2023/10/26 10:12:13;;;;;;;8.55;1.55;;;;;;;;;;4996736;28;20029;-68
2023/10/26 10:14:48;;;;;;;8.25;1.50;;;;;;;;;;4996727;28;20033;-69
2023/10/26 10:17:17;;;;;;;7.63;1.75;;;;;;;;;;4996987;28;20065;-68
2023/10/26 10:19:46;;;;;;;17.92;1.58;;;;;;;;;;4996182;28;20023;-68
2023/10/26 10:22:39;;;;;;;215.95;35.35;;;;;;;;;;4996525;28;20035;-69
2023/10/26 10:25:11;;;;;;;304.27;49.22;;;;;;;;;;4996215;28;20030;-69
2023/10/26 10:27:41;;;;;;;53.83;7.63;;;;;;;;;;4996283;28;20038;-68
2023/10/26 10:30:11;;;;;;;29.35;5.65;;;;;;;;;;4996431;28;20022;-68
2023/10/26 10:32:43;;;;;;;20.48;4.57;;;;;;;;;;4996172;28;20030;-70
2023/10/26 10:35:39;;;;;;;46.13;8.25;;;;;;;;;;4989766;28;20034;-68
2023/10/26 10:38:13;;;;;;;92.13;13.02;;;;;;;;;;4981953;28;20073;-67
2023/10/26 10:41:02;;;;;;;72.65;11.85;;;;;;;;;;4996113;28;20041;-68
2023/10/26 10:43:44;;;;;;;82.47;14.18;;;;;;;;;;4990136;28;20048;-71
2023/10/26 10:46:20;;;;;;;197.27;26.85;;;;;;;;;;4996069;28;20023;-69
2023/10/26 10:48:54;;;;;;;89.43;13.40;;;;;;;;;;4996270;28;20073;-69
2023/10/26 10:51:20;;;;;;;94.78;16.20;;;;;;;;;;4995658;28;20030;-71
2023/10/26 10:53:50;;;;;;;100.03;16.30;;;;;;;;;;4996128;28;20076;-68
2023/10/26 10:56:16;;;;;;;118.68;20.20;;;;;;;;;;4995775;28;20026;-69
2023/10/26 10:58:41;;;;;;;155.00;24.50;;;;;;;;;;4995538;28;20033;-69
2023/10/26 11:01:07;;;;;;;184.27;29.30;;;;;;;;;;4993822;28;20491;-70
2023/10/26 11:03:32;;;;;;;101.47;17.38;;;;;;;;;;4991600;28;20149;-72
2023/10/26 11:05:58;;;;;;;104.90;18.65;;;;;;;;;;4994910;28;20057;-66
2023/10/26 11:08:25;;;;;;;107.05;18.25;;;;;;;;;;4995624;28;20050;-70
2023/10/26 11:10:51;;;;;;;99.45;16.27;;;;;;;;;;4996031;28;20026;-67
2023/10/26 11:13:21;;;;;;;96.72;14.48;;;;;;;;;;4995353;28;20490;-67
2023/10/26 11:15:47;;;;;;;97.75;13.38;;;;;;;;;;4995284;28;20034;-68
2023/10/26 11:18:13;;;;;;;81.07;14.18;;;;;;;;;;4995097;28;20057;-68
2023/10/26 11:20:45;;;;;;;87.95;15.52;;;;;;;;;;4995414;28;20470;-71
2023/10/26 11:23:13;;;;;;;66.60;12.02;;;;;;;;;;4995147;28;20089;-68
2023/10/26 11:25:39;;;;;;;46.20;8.80;;;;;;;;;;4995125;28;20407;-69
2023/10/26 11:28:06;;;;;;;46.90;9.38;;;;;;;;;;4994929;28;20030;-68
2023/10/26 11:30:51;;;;;;;58.58;9.93;;;;;;;;;;4987120;28;20086;-69
2023/10/26 11:33:53;;;;;;;36.17;7.43;;;;;;;;;;4971142;28;20529;-68
2023/10/26 11:36:19;;;;;;;32.72;8.10;;;;;;;;;;4974196;28;20130;-68
2023/10/26 11:38:46;;;;;;;35.92;7.63;;;;;;;;;;4975606;28;20433;-70
2023/10/26 11:41:19;;;;;;;49.00;7.35;;;;;;;;;;4975388;28;20114;-67
2023/10/26 11:43:45;;;;;;;38.92;7.75;;;;;;;;;;4975238;28;20038;-67
2023/10/26 11:46:10;;;;;;;39.97;7.75;;;;;;;;;;4975358;28;20023;-67
2023/10/26 11:48:36;;;;;;;40.80;8.43;;;;;;;;;;4975115;28;20081;-68
2023/10/26 11:51:06;;;;;;;39.08;9.27;;;;;;;;;;4975088;28;20023;-68
2023/10/26 11:53:32;;;;;;;32.75;6.00;;;;;;;;;;4975225;28;20034;-71
2023/10/26 11:55:59;;;;;;;25.67;5.97;;;;;;;;;;4975118;28;20089;-68
2023/10/26 11:58:24;;;;;;;23.92;4.93;;;;;;;;;;4975025;28;20054;-67
2023/10/26 12:00:50;;;;;;;23.13;6.07;;;;;;;;;;4974722;28;20511;-67
2023/10/26 12:03:15;;;;;;;33.90;5.88;;;;;;;;;;4974684;28;20031;-70
2023/10/26 12:05:41;;;;;;;17.05;5.50;;;;;;;;;;4974920;28;20058;-68
2023/10/26 12:08:07;;;;;;;18.55;5.97;;;;;;;;;;4975214;28;20109;-67
2023/10/26 12:10:32;;;;;;;26.08;5.65;;;;;;;;;;4975199;28;20027;-69
2023/10/26 12:13:02;;;;;;;18.23;3.90;;;;;;;;;;4974670;28;20500;-70
2023/10/26 12:15:27;;;;;;;20.58;5.28;;;;;;;;;;4974868;28;20502;-70
2023/10/26 12:17:53;;;;;;;17.30;4.22;;;;;;;;;;4974548;28;20093;-70
2023/10/26 12:20:19;;;;;;;16.30;3.85;;;;;;;;;;4973246;28;20077;-70
2023/10/26 12:22:47;;;;;;;11.60;3.35;;;;;;;;;;4973173;28;20480;-70
2023/10/26 12:25:13;;;;;;;21.30;4.47;;;;;;;;;;4974424;28;20054;-68
2023/10/26 12:27:39;;;;;;;15.63;3.45;;;;;;;;;;4974367;28;20031;-68
2023/10/26 12:30:06;;;;;;;9.75;3.15;;;;;;;;;;4973881;28;20023;-70
2023/10/26 12:32:31;;;;;;;18.77;2.97;;;;;;;;;;4955969;28;20027;-68
2023/10/26 12:34:57;;;;;;;11.38;2.28;;;;;;;;;;4955625;29;20610;-68
2023/10/26 12:37:22;;;;;;;11.80;3.03;;;;;;;;;;4960368;28;20125;-68
2023/10/26 12:39:48;;;;;;;14.15;3.28;;;;;;;;;;4974606;28;20019;-68
2023/10/26 12:42:14;;;;;;;9.20;2.45;;;;;;;;;;4974502;28;20364;-67
2023/10/26 12:44:39;;;;;;;13.10;3.10;;;;;;;;;;4981968;28;20018;-68
2023/10/26 12:47:06;;;;;;;15.15;2.50;;;;;;;;;;4993826;28;20023;-69
2023/10/26 12:49:32;;;;;;;7.30;2.70;;;;;;;;;;4993743;28;20553;-68
2023/10/26 12:51:57;;;;;;;6.20;2.28;;;;;;;;;;4993666;28;20034;-68
2023/10/26 12:54:23;;;;;;;10.45;2.35;;;;;;;;;;4993424;28;20022;-70
2023/10/26 12:56:49;;;;;;;7.28;2.17;;;;;;;;;;4993393;28;20054;-67
2023/10/26 12:59:14;;;;;;;6.72;1.85;;;;;;;;;;4988225;28;20038;-68
2023/10/26 13:01:40;;;;;;;6.15;2.08;;;;;;;;;;4974161;28;20030;-69
2023/10/26 13:04:05;;;;;;;5.65;1.65;;;;;;;;;;4974083;28;20030;-68
2023/10/26 13:06:33;;;;;;;4.45;1.92;;;;;;;;;;4973661;28;20049;-68
2023/10/26 13:08:59;;;;;;;6.10;1.83;;;;;;;;;;4973232;28;20035;-68
2023/10/26 13:11:25;;;;;;;5.28;2.08;;;;;;;;;;4972179;28;20031;-69
2023/10/26 13:13:50;;;;;;;4.25;1.58;;;;;;;;;;4971259;28;20089;-67
2023/10/26 13:16:16;;;;;;;6.47;1.85;;;;;;;;;;4973691;28;20022;-69
2023/10/26 13:18:42;;;;;;;7.03;2.03;;;;;;;;;;4973422;28;20062;-68
2023/10/26 13:21:07;;;;;;;12.48;1.88;;;;;;;;;;4968058;28;20066;-69
2023/10/26 13:23:33;;;;;;;9.20;1.58;;;;;;;;;;4973830;28;20106;-70
2023/10/26 13:25:59;;;;;;;4.95;1.60;;;;;;;;;;4973603;28;20377;-68
2023/10/26 13:28:25;;;;;;;4.25;1.60;;;;;;;;;;4974076;28;20027;-68
2023/10/26 13:30:51;;;;;;;4.25;1.65;;;;;;;;;;4973924;28;20019;-68
2023/10/26 13:33:17;;;;;;;9.52;1.85;;;;;;;;;;4974004;28;20031;-68
2023/10/26 13:35:43;;;;;;;4.13;1.33;;;;;;;;;;4973757;28;20473;-69
2023/10/26 13:38:12;;;;;;;5.70;1.75;;;;;;;;;;4973510;28;20031;-68
2023/10/26 13:40:44;;;;;;;4.40;1.92;;;;;;;;;;4973871;28;20041;-68
2023/10/26 13:43:11;;;;;;;7.50;1.25;;;;;;;;;;4977469;28;20030;-69
2023/10/26 13:45:37;;;;;;;5.55;1.40;;;;;;;;;;4977676;28;20026;-69
2023/10/26 13:48:05;;;;;;;7.88;1.38;;;;;;;;;;4977767;28;20113;-69
2023/10/26 13:50:31;;;;;;;4.40;1.55;;;;;;;;;;4977594;28;20373;-67
2023/10/26 13:52:58;;;;;;;4.15;1.27;;;;;;;;;;4977604;28;20033;-69
2023/10/26 13:55:24;;;;;;;3.38;0.93;;;;;;;;;;4981049;28;20107;-68
2023/10/26 13:57:50;;;;;;;4.25;1.40;;;;;;;;;;4996931;28;20029;-69
2023/10/26 14:00:16;;;;;;;6.15;1.25;;;;;;;;;;4997247;28;20018;-68
2023/10/26 14:02:42;;;;;;;4.53;1.40;;;;;;;;;;4996965;28;20022;-67
2023/10/26 14:05:09;;;;;;;11.45;1.90;;;;;;;;;;4996982;28;20118;-68
2023/10/26 14:07:35;;;;;;;8.68;1.42;;;;;;;;;;4996535;28;20043;-67
2023/10/26 14:10:07;;;;;;;16.67;2.63;;;;;;;;;;4996359;28;20547;-67
2023/10/26 14:12:34;;;;;;;12.75;1.75;;;;;;;;;;4996339;28;20022;-69
2023/10/26 14:15:04;;;;;;;17.20;2.17;;;;;;;;;;4996236;28;20099;-67
2023/10/26 14:17:34;;;;;;;9.63;1.52;;;;;;;;;;4996505;28;20463;-66
2023/10/26 14:20:04;;;;;;;4.50;1.88;;;;;;;;;;4991214;28;20495;-67
2023/10/26 14:22:32;;;;;;;12.27;2.55;;;;;;;;;;4976845;28;20539;-67
2023/10/26 14:24:57;;;;;;;7.55;2.25;;;;;;;;;;4977256;28;20392;-67
2023/10/26 14:27:23;;;;;;;15.30;2.38;;;;;;;;;;4977444;28;20023;-67
2023/10/26 14:29:48;;;;;;;12.00;2.33;;;;;;;;;;4976713;28;20045;-66
2023/10/26 14:32:14;;;;;;;9.10;2.45;;;;;;;;;;4976771;28;20033;-66
2023/10/26 14:34:39;;;;;;;6.00;1.90;;;;;;;;;;4977130;28;20037;-67
2023/10/26 14:37:05;;;;;;;5.90;1.88;;;;;;;;;;4976635;28;20057;-66
2023/10/26 14:39:30;;;;;;;4.53;1.80;;;;;;;;;;4962468;28;20031;-66
2023/10/26 14:41:56;;;;;;;7.78;2.05;;;;;;;;;;4957692;28;20050;-66
2023/10/26 14:44:21;;;;;;;5.43;1.80;;;;;;;;;;4957168;29;20392;-67
2023/10/26 14:46:47;;;;;;;6.20;1.90;;;;;;;;;;4957254;29;20039;-66
2023/10/26 14:49:12;;;;;;;4.40;1.40;;;;;;;;;;4956622;29;20026;-66
2023/10/26 14:51:42;;;;;;;4.60;2.00;;;;;;;;;;4956111;28;20034;-67
2023/10/26 14:54:08;;;;;;;2.83;1.50;;;;;;;;;;4955669;29;20039;-66
2023/10/26 14:56:33;;;;;;;5.13;1.50;;;;;;;;;;4956895;29;20032;-67
2023/10/26 14:58:59;;;;;;;4.72;1.88;;;;;;;;;;4957092;29;20114;-67
2023/10/26 15:01:25;;;;;;;2.55;1.35;;;;;;;;;;4957399;29;20046;-66
2023/10/26 15:03:51;;;;;;;5.63;1.40;;;;;;;;;;4956848;29;20488;-67
2023/10/26 15:06:16;;;;;;;2.05;1.40;;;;;;;;;;4956222;29;20032;-67
2023/10/26 15:08:42;;;;;;;3.47;1.38;;;;;;;;;;4956884;29;20031;-66
2023/10/26 15:11:07;;;;;;;2.90;1.60;;;;;;;;;;4956747;29;20031;-66
2023/10/26 15:13:33;;;;;;;3.75;1.50;;;;;;;;;;4956922;29;20106;-67
2023/10/26 15:15:59;;;;;;;3.38;1.55;;;;;;;;;;4955275;29;20113;-66
2023/10/26 15:18:26;;;;;;;3.92;1.40;;;;;;;;;;4956519;29;20488;-67
2023/10/26 15:20:52;;;;;;;5.18;1.17;;;;;;;;;;4956653;29;20042;-66
2023/10/26 15:23:17;;;;;;;6.85;1.80;;;;;;;;;;4956778;29;20106;-66
2023/10/26 15:25:43;;;;;;;2.58;1.63;;;;;;;;;;4956977;29;20171;-67
2023/10/26 15:28:08;;;;;;;3.17;1.40;;;;;;;;;;4956631;29;20054;-66
2023/10/26 15:30:34;;;;;;;5.82;1.58;;;;;;;;;;4956551;29;20055;-67
2023/10/26 15:33:00;;;;;;;4.75;1.50;;;;;;;;;;4956523;29;20094;-66
2023/10/26 15:35:29;;;;;;;3.58;1.40;;;;;;;;;;4956039;29;20035;-66
2023/10/26 15:37:55;;;;;;;3.60;1.30;;;;;;;;;;4972096;28;20492;-67
2023/10/26 15:40:20;;;;;;;4.70;1.20;;;;;;;;;;4975648;28;20023;-67
2023/10/26 15:42:46;;;;;;;1.80;1.20;;;;;;;;;;4975698;28;20027;-66
2023/10/26 15:45:12;;;;;;;3.42;1.40;;;;;;;;;;4975241;28;20468;-66
2023/10/26 15:47:38;;;;;;;4.68;1.40;;;;;;;;;;4975072;28;20031;-68
2023/10/26 15:50:04;;;;;;;15.73;2.42;;;;;;;;;;4975236;28;20476;-66
2023/10/26 15:52:29;;;;;;;14.98;2.25;;;;;;;;;;4975718;28;20045;-66
2023/10/26 15:54:55;;;;;;;14.65;1.60;;;;;;;;;;4975355;28;20027;-66
2023/10/26 15:57:21;;;;;;;8.02;1.50;;;;;;;;;;4975443;28;20030;-65
2023/10/26 15:59:46;;;;;;;6.13;1.60;;;;;;;;;;4975227;28;20023;-66
2023/10/26 16:02:13;;;;;;;8.57;1.50;;;;;;;;;;4961819;28;20409;-67
2023/10/26 16:04:38;;;;;;;4.28;1.70;;;;;;;;;;4955260;28;20031;-66
2023/10/26 16:07:04;;;;;;;6.55;1.30;;;;;;;;;;4956120;29;20412;-66
2023/10/26 16:09:33;;;;;;;5.40;1.70;;;;;;;;;;4956434;29;20031;-66
2023/10/26 16:11:59;;;;;;;9.77;1.70;;;;;;;;;;4955937;29;20031;-66
2023/10/26 16:14:25;;;;;;;11.05;2.05;;;;;;;;;;4955685;28;20035;-66
2023/10/26 16:16:51;;;;;;;3.88;1.70;;;;;;;;;;4955438;29;20031;-66
2023/10/26 16:19:17;;;;;;;4.40;1.50;;;;;;;;;;4963342;28;20115;-66
2023/10/26 16:21:42;;;;;;;8.35;1.83;;;;;;;;;;4974515;28;20030;-66
2023/10/26 16:24:08;;;;;;;4.68;1.50;;;;;;;;;;4974772;28;20114;-66
2023/10/26 16:26:34;;;;;;;4.13;1.90;;;;;;;;;;4975074;28;20027;-67
2023/10/26 16:29:00;;;;;;;5.55;1.85;;;;;;;;;;4974391;28;20038;-66
2023/10/26 16:31:26;;;;;;;3.42;1.63;;;;;;;;;;4974775;28;20023;-67
2023/10/26 16:33:51;;;;;;;3.03;1.80;;;;;;;;;;4974396;28;20049;-67
2023/10/26 16:36:17;;;;;;;11.55;1.80;;;;;;;;;;4974843;28;20022;-67
2023/10/26 16:38:42;;;;;;;7.68;1.63;;;;;;;;;;4974612;28;20101;-67
2023/10/26 16:41:09;;;;;;;9.05;2.00;;;;;;;;;;4974434;28;20031;-66
2023/10/26 16:43:35;;;;;;;4.15;1.58;;;;;;;;;;4974471;28;20035;-67
2023/10/26 16:46:00;;;;;;;5.32;1.80;;;;;;;;;;4974392;28;20035;-67
2023/10/26 16:48:26;;;;;;;4.25;1.80;;;;;;;;;;4974777;28;20019;-66
2023/10/26 16:50:53;;;;;;;7.57;1.45;;;;;;;;;;4974411;28;20035;-66
2023/10/26 16:53:18;;;;;;;3.35;1.88;;;;;;;;;;4974147;28;20023;-66
2023/10/26 16:55:44;;;;;;;5.38;1.60;;;;;;;;;;4974457;28;20031;-66
2023/10/26 16:58:09;;;;;;;6.05;1.85;;;;;;;;;;4974153;28;20049;-66
2023/10/26 17:00:35;;;;;;;4.25;1.85;;;;;;;;;;4974437;28;20531;-66
2023/10/26 17:03:02;;;;;;;3.83;2.03;;;;;;;;;;4974220;28;20475;-66
2023/10/26 17:05:29;;;;;;;3.47;1.77;;;;;;;;;;4974307;28;20030;-66
2023/10/26 17:07:56;;;;;;;2.35;1.40;;;;;;;;;;4973777;28;20058;-66
2023/10/26 17:10:22;;;;;;;5.30;1.60;;;;;;;;;;4974337;28;20050;-66
2023/10/26 17:12:47;;;;;;;4.35;1.95;;;;;;;;;;4974258;28;20061;-67
2023/10/26 17:15:14;;;;;;;6.10;1.70;;;;;;;;;;4973530;28;20435;-67
2023/10/26 17:17:40;;;;;;;4.93;1.60;;;;;;;;;;4974365;28;20027;-67
2023/10/26 17:20:07;;;;;;;3.45;1.60;;;;;;;;;;4973995;28;20082;-67
2023/10/26 17:22:33;;;;;;;5.20;1.58;;;;;;;;;;4974146;28;20495;-67
2023/10/26 17:24:58;;;;;;;2.58;1.70;;;;;;;;;;4973321;28;20041;-67
2023/10/26 17:27:24;;;;;;;5.03;1.92;;;;;;;;;;4973123;28;20023;-66
2023/10/26 17:29:50;;;;;;;8.07;2.10;;;;;;;;;;4973902;28;20073;-66
2023/10/26 17:32:15;;;;;;;8.80;2.47;;;;;;;;;;4973805;28;20484;-66
2023/10/26 17:34:41;;;;;;;4.95;1.95;;;;;;;;;;4973578;28;20030;-66
2023/10/26 17:37:07;;;;;;;6.93;2.20;;;;;;;;;;4973445;28;20034;-66
2023/10/26 17:39:33;;;;;;;7.35;2.22;;;;;;;;;;4970529;28;20019;-66
2023/10/26 17:41:59;;;;;;;10.50;2.42;;;;;;;;;;4962796;28;20086;-66
2023/10/26 17:44:24;;;;;;;4.22;2.60;;;;;;;;;;4954371;29;20035;-66
2023/10/26 17:46:50;;;;;;;6.38;2.80;;;;;;;;;;4954323;29;20451;-66
2023/10/26 17:49:16;;;;;;;5.60;3.53;;;;;;;;;;4954024;29;20500;-66
2023/10/26 17:51:42;;;;;;;5.82;2.85;;;;;;;;;;4954291;29;20039;-66
2023/10/26 17:54:08;;;;;;;7.80;6.07;;;;;;;;;;4954301;29;20031;-66
2023/10/26 17:56:34;;;;;;;11.80;10.60;;;;;;;;;;4954392;29;20023;-66
2023/10/26 17:59:00;;;;;;;11.25;7.38;;;;;;;;;;4967166;28;20397;-66
2023/10/26 18:01:26;;;;;;;7.45;6.18;;;;;;;;;;4973118;28;20499;-67
2023/10/26 18:03:51;;;;;;;8.13;6.00;;;;;;;;;;4977666;28;20026;-67
2023/10/26 18:06:20;;;;;;;6.85;5.80;;;;;;;;;;4992350;28;20037;-66
2023/10/26 18:08:46;;;;;;;6.40;5.20;;;;;;;;;;4992616;28;20113;-66
2023/10/26 18:11:12;;;;;;;9.80;4.40;;;;;;;;;;4992368;28;20032;-67
2023/10/26 18:13:37;;;;;;;11.48;5.03;;;;;;;;;;4992672;28;20038;-66
2023/10/26 18:16:07;;;;;;;6.10;4.70;;;;;;;;;;4980148;28;20058;-66
2023/10/26 18:18:33;;;;;;;12.43;4.90;;;;;;;;;;4973391;28;20022;-65
2023/10/26 18:21:03;;;;;;;7.80;4.55;;;;;;;;;;4973345;28;20034;-65
2023/10/26 18:23:30;;;;;;;5.03;4.25;;;;;;;;;;4973201;28;20033;-65
2023/10/26 18:26:09;;;;;;;5.32;4.82;;;;;;;;;;4973153;28;20031;-66
2023/10/26 18:28:44;;;;;;;12.88;5.80;;;;;;;;;;4975605;28;20030;-66
2023/10/26 18:31:11;;;;;;;12.23;5.82;;;;;;;;;;4976678;28;20479;-66
2023/10/26 18:33:40;;;;;;;7.78;5.18;;;;;;;;;;4976770;28;20030;-67
2023/10/26 18:36:09;;;;;;;7.05;5.55;;;;;;;;;;4976789;28;20023;-65
2023/10/26 18:38:36;;;;;;;10.82;6.35;;;;;;;;;;4977057;28;20035;-66
2023/10/26 18:41:04;;;;;;;7.40;5.57;;;;;;;;;;4976817;28;20023;-66
2023/10/26 18:43:32;;;;;;;6.07;5.10;;;;;;;;;;4976993;28;20096;-66
2023/10/26 18:46:02;;;;;;;6.50;5.88;;;;;;;;;;4976512;28;20031;-67
2023/10/26 18:48:30;;;;;;;7.32;5.78;;;;;;;;;;4976267;28;20027;-67
2023/10/26 18:50:56;;;;;;;7.72;4.75;;;;;;;;;;4976871;28;20051;-65
2023/10/26 18:53:21;;;;;;;4.50;4.05;;;;;;;;;;4976862;28;20027;-66
2023/10/26 18:55:47;;;;;;;8.38;4.38;;;;;;;;;;4976949;28;20369;-67
2023/10/26 18:58:17;;;;;;;9.10;4.68;;;;;;;;;;4975854;28;20034;-68
2023/10/26 19:00:43;;;;;;;6.70;4.20;;;;;;;;;;4975785;28;20048;-66
2023/10/26 19:03:11;;;;;;;8.90;4.35;;;;;;;;;;4976130;28;20106;-65
2023/10/26 19:05:38;;;;;;;6.22;4.28;;;;;;;;;;4976260;28;20451;-66
2023/10/26 19:08:05;;;;;;;4.47;4.07;;;;;;;;;;4975559;28;20090;-66
2023/10/26 19:10:31;;;;;;;7.70;4.50;;;;;;;;;;4976248;28;20114;-66
2023/10/26 19:12:57;;;;;;;4.85;3.80;;;;;;;;;;4976063;28;20022;-66
2023/10/26 19:15:23;;;;;;;4.85;4.25;;;;;;;;;;4974289;28;20476;-66
2023/10/26 19:17:48;;;;;;;5.40;4.35;;;;;;;;;;4976093;28;20586;-66
2023/10/26 19:20:17;;;;;;;4.57;3.95;;;;;;;;;;4976156;28;20085;-66
2023/10/26 19:22:46;;;;;;;12.88;4.15;;;;;;;;;;4975996;28;20444;-65
2023/10/26 19:25:12;;;;;;;11.50;3.80;;;;;;;;;;4975774;28;20029;-65
2023/10/26 19:27:38;;;;;;;5.43;3.80;;;;;;;;;;4975980;28;20125;-65
2023/10/26 19:30:04;;;;;;;10.93;3.92;;;;;;;;;;4975727;28;20111;-65
2023/10/26 19:32:30;;;;;;;3.58;3.05;;;;;;;;;;4975320;28;20427;-67
2023/10/26 19:34:56;;;;;;;11.43;2.92;;;;;;;;;;4975617;28;20102;-68
2023/10/26 19:37:23;;;;;;;5.07;3.30;;;;;;;;;;4975363;28;20106;-66
2023/10/26 19:39:48;;;;;;;3.72;2.97;;;;;;;;;;4975085;28;20476;-67
2023/10/26 19:42:14;;;;;;;3.78;2.90;;;;;;;;;;4975264;28;20035;-67
2023/10/26 19:44:39;;;;;;;3.65;3.15;;;;;;;;;;4975437;28;20034;-67
2023/10/26 19:47:05;;;;;;;3.35;2.60;;;;;;;;;;4974922;28;20388;-66
2023/10/26 19:49:31;;;;;;;4.15;2.70;;;;;;;;;;4975896;28;20109;-66
2023/10/26 19:51:56;;;;;;;5.10;2.72;;;;;;;;;;4975301;28;20583;-66
2023/10/26 19:54:22;;;;;;;3.72;2.50;;;;;;;;;;4975450;28;20472;-66
2023/10/26 19:56:47;;;;;;;3.28;2.30;;;;;;;;;;4975657;28;20037;-66
2023/10/26 19:59:14;;;;;;;3.00;1.90;;;;;;;;;;4975981;28;20056;-66
2023/10/26 20:01:39;;;;;;;3.90;2.05;;;;;;;;;;4975575;28;20105;-66
2023/10/26 20:04:05;;;;;;;2.25;2.05;;;;;;;;;;4975227;28;20033;-66
2023/10/26 20:06:31;;;;;;;3.20;2.33;;;;;;;;;;4975250;28;20050;-66
2023/10/26 20:08:56;;;;;;;3.72;1.90;;;;;;;;;;4974982;28;20038;-67
2023/10/26 20:11:22;;;;;;;7.72;1.95;;;;;;;;;;4974001;28;20030;-67
2023/10/26 20:13:48;;;;;;;3.92;2.22;;;;;;;;;;4975903;28;20423;-66
2023/10/26 20:16:16;;;;;;;9.57;1.80;;;;;;;;;;4974865;28;20515;-66
2023/10/26 20:18:44;;;;;;;14.93;2.20;;;;;;;;;;4975449;28;20081;-65
2023/10/26 20:21:09;;;;;;;2.92;2.00;;;;;;;;;;4975188;28;20065;-65
2023/10/26 20:23:35;;;;;;;4.05;1.80;;;;;;;;;;4974986;28;20105;-66
2023/10/26 20:26:01;;;;;;;3.15;1.60;;;;;;;;;;4974851;28;20034;-66
2023/10/26 20:28:27;;;;;;;3.28;2.00;;;;;;;;;;4974774;28;20026;-66
2023/10/26 20:30:52;;;;;;;2.65;1.95;;;;;;;;;;4975016;28;20014;-66
2023/10/26 20:33:18;;;;;;;3.40;1.50;;;;;;;;;;4975032;28;20042;-65
2023/10/26 20:35:51;;;;;;;11.75;2.10;;;;;;;;;;4975115;28;20031;-66
2023/10/26 20:38:17;;;;;;;16.38;2.83;;;;;;;;;;4974873;28;20038;-67
2023/10/26 20:40:42;;;;;;;6.72;1.77;;;;;;;;;;4974585;28;20027;-66
2023/10/26 20:43:08;;;;;;;13.02;2.00;;;;;;;;;;4975065;28;20109;-66
2023/10/26 20:45:33;;;;;;;8.35;2.58;;;;;;;;;;4965947;28;20063;-66
2023/10/26 20:47:59;;;;;;;10.73;2.35;;;;;;;;;;4955267;29;20102;-66
2023/10/26 20:50:30;;;;;;;17.50;2.20;;;;;;;;;;4955149;28;20422;-66
2023/10/26 20:52:57;;;;;;;6.85;1.92;;;;;;;;;;4955533;29;20062;-66
2023/10/26 20:55:23;;;;;;;10.55;1.95;;;;;;;;;;4955193;29;20090;-66
2023/10/26 20:57:49;;;;;;;6.40;1.70;;;;;;;;;;4955463;29;20031;-66
2023/10/26 21:00:15;;;;;;;11.88;1.60;;;;;;;;;;4955209;29;20481;-66
2023/10/26 21:02:41;;;;;;;7.90;1.50;;;;;;;;;;4955123;29;20051;-67
2023/10/26 21:05:08;;;;;;;7.65;1.77;;;;;;;;;;4955000;28;20444;-66
2023/10/26 21:07:33;;;;;;;8.05;1.70;;;;;;;;;;4954788;29;20613;-67
2023/10/26 21:09:59;;;;;;;5.82;1.35;;;;;;;;;;4955175;29;20043;-66
2023/10/26 21:12:25;;;;;;;5.07;1.65;;;;;;;;;;4955188;29;20050;-66
2023/10/26 21:14:53;;;;;;;8.23;1.95;;;;;;;;;;4954706;29;20082;-66
2023/10/26 21:17:24;;;;;;;6.68;1.75;;;;;;;;;;4954680;29;20034;-66
2023/10/26 21:19:50;;;;;;;5.95;1.30;;;;;;;;;;4954555;29;20023;-66
2023/10/26 21:22:17;;;;;;;7.35;1.20;;;;;;;;;;4962852;28;20483;-66
2023/10/26 21:24:47;;;;;;;6.70;1.50;;;;;;;;;;4973914;28;20038;-66
2023/10/26 21:27:13;;;;;;;3.67;1.30;;;;;;;;;;4974125;28;20035;-66
2023/10/26 21:29:38;;;;;;;2.60;1.25;;;;;;;;;;4973826;28;20536;-67
2023/10/26 21:32:05;;;;;;;3.17;1.02;;;;;;;;;;4973893;28;20038;-67
2023/10/26 21:34:31;;;;;;;3.42;1.13;;;;;;;;;;4973754;28;20169;-66
2023/10/26 21:36:57;;;;;;;3.53;1.00;;;;;;;;;;4973794;28;20387;-67
2023/10/26 21:39:23;;;;;;;3.05;1.00;;;;;;;;;;4974239;28;20031;-67
2023/10/26 21:41:48;;;;;;;6.47;1.42;;;;;;;;;;4973942;28;20023;-66
2023/10/26 21:44:14;;;;;;;1.85;1.02;;;;;;;;;;4973580;28;20885;-66